Schuler, Canada
Current Conditions -  °F | °C
As of 9:00 PM on Thursday 27 Nov 2014 (Local Time) from CYXH Reporting Station
Haze Haze  
Wind Chill: 27°   Ceiling: 600
Heat Index: 27°   Visibility: 1.5mi
Dew Point: 27°   Wind: 3mph
Humidity: 100%   Direction: 280°W
Pressure: 29.68"   Gusts: NA
Location:  50.37°N, 110.09°W
Report Text: CYXH 280400Z AUTO 28003KT 1 1/2SM BR OVC006 M03/M03 A2968 RMK SLP081
Loading
Personal Weather Stations






























Interactive Weather Map New forecast layout! Learn more

10-Day Weather Forecast

Advertisements
Track Severe Weather on mobile